Taurus Leader — 9V3259 — position and weather

sailwx.info

Track history (hours):
 
Tides and Currents Weather Stations Pressure Air Temp Water Temp Dewpoint Dewpoint Depression Visibility Wind Speed Wind Dir Waves Ship Positions

Taurus Leader

Last reported at 2018-Apr-12 07:02 UTC. Time now 2018-Apr-24 02:54 UTC.
Position N 31°05' W 118°27'.
Warning: this ship's position is 11 days out of date.

Length 199 m; draft 9.5 m.

Type: Cargo ship. MMSI: 566095000.

Date/timePositionNaut miles runAvg speedWind from/ knotsBaromVisibWave heightAir tempDewpointWater temp
2018-Apr-12 07:02N 31°05' W 118°27'217.3
2018-Apr-12 06:57N 31°06' W 118°25'818.0
2018-Apr-12 06:30N 31°12' W 118°20'918.0
2018-Apr-12 06:00N 31°20' W 118°14'917.8
2018-Apr-12 05:30N 31°27' W 118°09'917.7
2018-Apr-12 05:00N 31°35' W 118°03'917.5
2018-Apr-12 04:28N 31°43' W 117°57'917.5
2018-Apr-12 03:58N 31°50' W 117°51'817.8
2018-Apr-12 03:30N 31°57' W 117°46'1818.0
2018-Apr-12 02:31N 32°12' W 117°35'017.0
2018-Apr-12 02:30N 32°12' W 117°35'917.1
2018-Apr-12 02:00N 32°19' W 117°29'27 3.0
2018-Apr-11 16:56N 32°39' W 117°07'0 0.0
2018-Apr-11 14:56N 32°39' W 117°07'0 0.0
2018-Apr-11 14:29N 32°39' W 117°07'0 0.0
2018-Apr-11 13:59N 32°39' W 117°07'0 0.0
2018-Apr-11 13:23N 32°39' W 117°07'0 0.0
2018-Apr-11 12:59N 32°39' W 117°07'0 0.0
2018-Apr-11 12:23N 32°39' W 117°07'0 0.0
2018-Apr-11 11:59N 32°39' W 117°07'0 0.0
2018-Apr-11 11:29N 32°39' W 117°07'0 0.0
2018-Apr-11 10:59N 32°39' W 117°07'0 0.0
2018-Apr-11 10:29N 32°39' W 117°07'0 0.0
2018-Apr-11 09:17N 32°39' W 117°07'0 0.0
2018-Apr-11 08:59N 32°39' W 117°07'0 0.0
2018-Apr-11 08:29N 32°39' W 117°07'0 0.0
2018-Apr-11 07:59N 32°39' W 117°07'0 0.0
2018-Apr-11 07:29N 32°39' W 117°07'0 0.0
2018-Apr-11 06:59N 32°39' W 117°07'0 0.0
2018-Apr-11 04:56N 32°39' W 117°07'0 0.0
2018-Apr-11 04:29N 32°39' W 117°07'0 0.0
2018-Apr-11 03:41N 32°39' W 117°07'0 0.0
2018-Apr-11 02:46N 32°39' W 117°07'1 1.9
2018-Apr-11 02:25N 32°40' W 117°08'5 9.7
2018-Apr-11 01:53N 32°43' W 117°12'5 9.6
2018-Apr-11 01:20N 32°38' W 117°14'2 7.3
2018-Apr-11 01:01N 32°36' W 117°16'4 7.8
2018-Apr-11 00:29N 32°35' W 117°20'4 8.6
2018-Apr-11 00:00N 32°35' W 117°25'510.8
2018-Apr-10 23:30N 32°31' W 117°30'1 2.7
2018-Apr-10 23:00N 32°31' W 117°31'0 0.8
2018-Apr-10 22:31N 32°31' W 117°32'0 0.7
2018-Apr-10 22:00N 32°31' W 117°32'0 0.8
2018-Apr-10 21:30N 32°31' W 117°32'0 0.7
2018-Apr-10 21:00N 32°31' W 117°33'0 0.6
2018-Apr-10 20:31N 32°31' W 117°33'0 0.5
2018-Apr-10 20:01N 32°32' W 117°33'0 0.6
2018-Apr-10 19:30N 32°32' W 117°33'0 0.6
2018-Apr-10 19:01N 32°32' W 117°34'0 0.5
2018-Apr-10 18:31N 32°32' W 117°34'0 0.6
2018-Apr-10 18:00N 32°33' W 117°34'0 0.6
2018-Apr-10 17:30N 32°33' W 117°34'0 0.6
2018-Apr-10 17:01N 32°33' W 117°34'0 0.7
2018-Apr-10 16:30N 32°34' W 117°35'0 0.8
2018-Apr-10 16:01N 32°34' W 117°35'0 0.5
2018-Apr-10 15:30N 32°34' W 117°35'0 0.5
2018-Apr-10 15:00N 32°34' W 117°35'0 0.5
2018-Apr-10 14:31N 32°34' W 117°35'0 0.6
2018-Apr-10 14:01N 32°35' W 117°35'3 5.4
2018-Apr-10 13:31N 32°32' W 117°35'4 7.9
2018-Apr-10 13:00N 32°32' W 117°39'5 9.1
2018-Apr-10 12:30N 32°36' W 117°42'612.8
2018-Apr-10 12:00N 32°42' W 117°38'611.1
2018-Apr-10 11:30N 32°47' W 117°41'612.7
2018-Apr-10 11:01N 32°51' W 117°46'612.4
2018-Apr-10 10:30N 32°56' W 117°52'612.1
2018-Apr-10 10:00N 32°56' W 117°59'612.1
2018-Apr-10 09:30N 32°55' W 118°06'611.8
2018-Apr-10 09:01N 33°01' W 118°08'612.4
2018-Apr-10 08:30N 33°07' W 118°10'611.3
2018-Apr-10 08:01N 33°09' W 118°16'612.7
2018-Apr-10 07:31N 33°09' W 118°24'612.2
2018-Apr-10 07:00N 33°11' W 118°30'612.4
2018-Apr-10 06:31N 33°15' W 118°37'611.7
2018-Apr-10 06:01N 33°19' W 118°41'612.0
2018-Apr-10 05:30N 33°25' W 118°45'612.3
2018-Apr-10 05:01N 33°30' W 118°48'612.7
2018-Apr-10 04:31N 33°35' W 118°52'612.7
2018-Apr-10 04:00N 33°41' W 118°56'612.4
2018-Apr-10 03:29N 33°46' W 118°60'612.3
2018-Apr-10 03:00N 33°52' W 119°03'712.5
2018-Apr-10 02:29N 33°57' W 119°08'612.5
2018-Apr-10 02:00N 34°01' W 119°13'5 9.3
2018-Apr-10 01:29N 34°06' W 119°15'4 7.7
2018-Apr-10 01:00N 34°09' W 119°13'0 0.0
2018-Apr-09 20:47N 34°09' W 119°12'0 0.0
2018-Apr-09 20:29N 34°09' W 119°12'0 0.0
2018-Apr-09 19:59N 34°09' W 119°12'0 0.0
2018-Apr-09 19:26N 34°09' W 119°12'0 0.0
2018-Apr-09 18:59N 34°09' W 119°12'0 0.0
2018-Apr-09 18:17N 34°09' W 119°12'0 0.0
2018-Apr-09 17:59N 34°09' W 119°12'0 0.0
2018-Apr-09 17:23N 34°09' W 119°12'0 0.0
2018-Apr-09 16:59N 34°09' W 119°12'0 0.0
2018-Apr-09 16:23N 34°09' W 119°12'0 0.0
2018-Apr-09 15:59N 34°09' W 119°12'0 0.0
2018-Apr-09 15:29N 34°09' W 119°12'0 0.0
2018-Apr-09 14:59N 34°09' W 119°12'0 0.0
2018-Apr-09 14:29N 34°09' W 119°12'0 0.0
2018-Apr-09 13:59N 34°09' W 119°12'0 0.0
2018-Apr-09 13:29N 34°09' W 119°12'0 0.0
2018-Apr-09 12:59N 34°09' W 119°12'0 0.0
2018-Apr-09 12:29N 34°09' W 119°12'0 0.0
2018-Apr-09 11:59N 34°09' W 119°12'0 0.0
2018-Apr-09 11:29N 34°09' W 119°12'0 0.0
2018-Apr-09 10:59N 34°09' W 119°12'0 0.0
2018-Apr-09 10:29N 34°09' W 119°12'0 0.0
2018-Apr-09 09:23N 34°09' W 119°12'0 0.0
2018-Apr-09 08:59N 34°09' W 119°12'0 0.0
2018-Apr-09 07:41N 34°09' W 119°12'0 0.0
2018-Apr-09 07:26N 34°09' W 119°12'0 0.0
2018-Apr-09 06:59N 34°09' W 119°12'0 0.0
2018-Apr-09 06:26N 34°09' W 119°12'0 0.0
2018-Apr-09 05:05N 34°09' W 119°12'0 0.0
2018-Apr-09 04:59N 34°09' W 119°12'0 0.2
2018-Apr-09 04:30N 34°09' W 119°12'3 5.0
2018-Apr-09 03:59N 34°07' W 119°14'4 6.8
2018-Apr-09 03:25N 34°03' W 119°13'11 9.8
2018-Apr-09 02:20N 33°58' W 119°02'511.3
2018-Apr-09 01:55N 33°55' W 118°57'611.5
2018-Apr-09 01:26N 33°53' W 118°51'511.8
2018-Apr-09 01:00N 33°50' W 118°45'611.9
2018-Apr-09 00:29N 33°47' W 118°39'612.0
2018-Apr-09 00:00N 33°44' W 118°33'611.6
2018-Apr-08 23:30N 33°41' W 118°27'611.6
2018-Apr-08 23:00N 33°39' W 118°21'611.5
2018-Apr-08 22:30N 33°38' W 118°14'4 8.5
2018-Apr-08 22:01N 33°42' W 118°11'3 6.4
2018-Apr-08 21:31N 33°45' W 118°13'1 3.0
2018-Apr-08 21:01N 33°46' W 118°13'0 0.2
2018-Apr-08 20:29N 33°46' W 118°13'0 0.0
2018-Apr-08 19:59N 33°46' W 118°13'0 0.0
2018-Apr-08 19:29N 33°46' W 118°13'0 0.0
2018-Apr-08 18:59N 33°46' W 118°13'0 0.0
2018-Apr-08 18:29N 33°46' W 118°13'0 0.0
2018-Apr-08 17:59N 33°46' W 118°13'0 0.0
2018-Apr-08 17:29N 33°46' W 118°13'0 0.0
2018-Apr-08 16:59N 33°46' W 118°13'0 0.0
2018-Apr-08 16:29N 33°46' W 118°13'0 0.0
2018-Apr-08 15:59N 33°46' W 118°13'0 0.0
2018-Apr-08 15:29N 33°46' W 118°13'0 0.0
2018-Apr-08 14:59N 33°46' W 118°13'0 0.7
2018-Apr-08 14:31N 33°46' W 118°13'1 2.6
2018-Apr-08 14:01N 33°45' W 118°13'3 6.3
2018-Apr-08 13:31N 33°42' W 118°11'3 6.1
2018-Apr-08 13:01N 33°39' W 118°10'1 2.7
2018-Apr-08 12:31N 33°38' W 118°10'510.8
2018-Apr-08 12:00N 33°33' W 118°09'611.5
2018-Apr-08 11:31N 33°27' W 118°06'611.9
2018-Apr-08 11:00N 33°22' W 118°04'611.5
2018-Apr-08 10:31N 33°16' W 118°02'713.6
2018-Apr-08 10:01N 33°10' W 117°59'713.7
2018-Apr-08 09:30N 33°03' W 117°57'713.6
2018-Apr-08 09:00N 32°57' W 117°55'714.0
2018-Apr-08 08:30N 32°50' W 117°53'713.9
2018-Apr-08 08:00N 32°43' W 117°50'713.9
2018-Apr-08 07:30N 32°36' W 117°48'714.0
2018-Apr-08 07:00N 32°30' W 117°45'713.9
2018-Apr-08 06:30N 32°23' W 117°42'714.1
2018-Apr-08 06:00N 32°16' W 117°40'3314.1
2018-Apr-08 03:38N 31°45' W 117°27'214.2
2018-Apr-08 03:30N 31°43' W 117°26'1014.1
2018-Apr-08 02:48N 31°34' W 117°23'  
Track history (hours):
 
Tides and Currents Weather Stations Pressure Air Temp Water Temp Dewpoint Dewpoint Depression Visibility Wind Speed Wind Dir Waves Ship Positions

Taurus Leader

Last reported at 2018-Apr-12 07:02 UTC. Time now 2018-Apr-24 02:54 UTC.
Position N 31°05' W 118°27'.
Warning: this ship's position is 11 days out of date.

Length 199 m; draft 9.5 m.

Type: Cargo ship. MMSI: 566095000.

Date/timePositionNaut miles runAvg speedWind from/ knotsBaromVisibWave heightAir tempDewpointWater temp
2018-Apr-12 07:02N 31°05' W 118°27'217.3
2018-Apr-12 06:57N 31°06' W 118°25'818.0
2018-Apr-12 06:30N 31°12' W 118°20'918.0
2018-Apr-12 06:00N 31°20' W 118°14'917.8
2018-Apr-12 05:30N 31°27' W 118°09'917.7
2018-Apr-12 05:00N 31°35' W 118°03'917.5
2018-Apr-12 04:28N 31°43' W 117°57'917.5
2018-Apr-12 03:58N 31°50' W 117°51'817.8
2018-Apr-12 03:30N 31°57' W 117°46'1818.0
2018-Apr-12 02:31N 32°12' W 117°35'017.0
2018-Apr-12 02:30N 32°12' W 117°35'917.1
2018-Apr-12 02:00N 32°19' W 117°29'27 3.0
2018-Apr-11 16:56N 32°39' W 117°07'0 0.0
2018-Apr-11 14:56N 32°39' W 117°07'0 0.0
2018-Apr-11 14:29N 32°39' W 117°07'0 0.0
2018-Apr-11 13:59N 32°39' W 117°07'0 0.0
2018-Apr-11 13:23N 32°39' W 117°07'0 0.0
2018-Apr-11 12:59N 32°39' W 117°07'0 0.0
2018-Apr-11 12:23N 32°39' W 117°07'0 0.0
2018-Apr-11 11:59N 32°39' W 117°07'0 0.0
2018-Apr-11 11:29N 32°39' W 117°07'0 0.0
2018-Apr-11 10:59N 32°39' W 117°07'0 0.0
2018-Apr-11 10:29N 32°39' W 117°07'0 0.0
2018-Apr-11 09:17N 32°39' W 117°07'0 0.0
2018-Apr-11 08:59N 32°39' W 117°07'0 0.0
2018-Apr-11 08:29N 32°39' W 117°07'0 0.0
2018-Apr-11 07:59N 32°39' W 117°07'0 0.0
2018-Apr-11 07:29N 32°39' W 117°07'0 0.0
2018-Apr-11 06:59N 32°39' W 117°07'0 0.0
2018-Apr-11 04:56N 32°39' W 117°07'0 0.0
2018-Apr-11 04:29N 32°39' W 117°07'0 0.0
2018-Apr-11 03:41N 32°39' W 117°07'0 0.0
2018-Apr-11 02:46N 32°39' W 117°07'1 1.9
2018-Apr-11 02:25N 32°40' W 117°08'5 9.7
2018-Apr-11 01:53N 32°43' W 117°12'5 9.6
2018-Apr-11 01:20N 32°38' W 117°14'2 7.3
2018-Apr-11 01:01N 32°36' W 117°16'4 7.8
2018-Apr-11 00:29N 32°35' W 117°20'4 8.6
2018-Apr-11 00:00N 32°35' W 117°25'510.8
2018-Apr-10 23:30N 32°31' W 117°30'1 2.7
2018-Apr-10 23:00N 32°31' W 117°31'0 0.8
2018-Apr-10 22:31N 32°31' W 117°32'0 0.7
2018-Apr-10 22:00N 32°31' W 117°32'0 0.8
2018-Apr-10 21:30N 32°31' W 117°32'0 0.7
2018-Apr-10 21:00N 32°31' W 117°33'0 0.6
2018-Apr-10 20:31N 32°31' W 117°33'0 0.5
2018-Apr-10 20:01N 32°32' W 117°33'0 0.6
2018-Apr-10 19:30N 32°32' W 117°33'0 0.6
2018-Apr-10 19:01N 32°32' W 117°34'0 0.5
2018-Apr-10 18:31N 32°32' W 117°34'0 0.6
2018-Apr-10 18:00N 32°33' W 117°34'0 0.6
2018-Apr-10 17:30N 32°33' W 117°34'0 0.6
2018-Apr-10 17:01N 32°33' W 117°34'0 0.7
2018-Apr-10 16:30N 32°34' W 117°35'0 0.8
2018-Apr-10 16:01N 32°34' W 117°35'0 0.5
2018-Apr-10 15:30N 32°34' W 117°35'0 0.5
2018-Apr-10 15:00N 32°34' W 117°35'0 0.5
2018-Apr-10 14:31N 32°34' W 117°35'0 0.6
2018-Apr-10 14:01N 32°35' W 117°35'3 5.4
2018-Apr-10 13:31N 32°32' W 117°35'4 7.9
2018-Apr-10 13:00N 32°32' W 117°39'5 9.1
2018-Apr-10 12:30N 32°36' W 117°42'612.8
2018-Apr-10 12:00N 32°42' W 117°38'611.1
2018-Apr-10 11:30N 32°47' W 117°41'612.7
2018-Apr-10 11:01N 32°51' W 117°46'612.4
2018-Apr-10 10:30N 32°56' W 117°52'612.1
2018-Apr-10 10:00N 32°56' W 117°59'612.1
2018-Apr-10 09:30N 32°55' W 118°06'611.8
2018-Apr-10 09:01N 33°01' W 118°08'612.4
2018-Apr-10 08:30N 33°07' W 118°10'611.3
2018-Apr-10 08:01N 33°09' W 118°16'612.7
2018-Apr-10 07:31N 33°09' W 118°24'612.2
2018-Apr-10 07:00N 33°11' W 118°30'612.4
2018-Apr-10 06:31N 33°15' W 118°37'611.7
2018-Apr-10 06:01N 33°19' W 118°41'612.0
2018-Apr-10 05:30N 33°25' W 118°45'612.3
2018-Apr-10 05:01N 33°30' W 118°48'612.7
2018-Apr-10 04:31N 33°35' W 118°52'612.7
2018-Apr-10 04:00N 33°41' W 118°56'612.4
2018-Apr-10 03:29N 33°46' W 118°60'612.3
2018-Apr-10 03:00N 33°52' W 119°03'712.5
2018-Apr-10 02:29N 33°57' W 119°08'612.5
2018-Apr-10 02:00N 34°01' W 119°13'5 9.3
2018-Apr-10 01:29N 34°06' W 119°15'4 7.7
2018-Apr-10 01:00N 34°09' W 119°13'0 0.0
2018-Apr-09 20:47N 34°09' W 119°12'0 0.0
2018-Apr-09 20:29N 34°09' W 119°12'0 0.0
2018-Apr-09 19:59N 34°09' W 119°12'0 0.0
2018-Apr-09 19:26N 34°09' W 119°12'0 0.0
2018-Apr-09 18:59N 34°09' W 119°12'0 0.0
2018-Apr-09 18:17N 34°09' W 119°12'0 0.0
2018-Apr-09 17:59N 34°09' W 119°12'0 0.0
2018-Apr-09 17:23N 34°09' W 119°12'0 0.0
2018-Apr-09 16:59N 34°09' W 119°12'0 0.0
2018-Apr-09 16:23N 34°09' W 119°12'0 0.0
2018-Apr-09 15:59N 34°09' W 119°12'0 0.0
2018-Apr-09 15:29N 34°09' W 119°12'0 0.0
2018-Apr-09 14:59N 34°09' W 119°12'0 0.0
2018-Apr-09 14:29N 34°09' W 119°12'0 0.0
2018-Apr-09 13:59N 34°09' W 119°12'0 0.0
2018-Apr-09 13:29N 34°09' W 119°12'0 0.0
2018-Apr-09 12:59N 34°09' W 119°12'0 0.0
2018-Apr-09 12:29N 34°09' W 119°12'0 0.0
2018-Apr-09 11:59N 34°09' W 119°12'0 0.0
2018-Apr-09 11:29N 34°09' W 119°12'0 0.0
2018-Apr-09 10:59N 34°09' W 119°12'0 0.0
2018-Apr-09 10:29N 34°09' W 119°12'0 0.0
2018-Apr-09 09:23N 34°09' W 119°12'0 0.0
2018-Apr-09 08:59N 34°09' W 119°12'0 0.0
2018-Apr-09 07:41N 34°09' W 119°12'0 0.0
2018-Apr-09 07:26N 34°09' W 119°12'0 0.0
2018-Apr-09 06:59N 34°09' W 119°12'0 0.0
2018-Apr-09 06:26N 34°09' W 119°12'0 0.0
2018-Apr-09 05:05N 34°09' W 119°12'0 0.0
2018-Apr-09 04:59N 34°09' W 119°12'0 0.2
2018-Apr-09 04:30N 34°09' W 119°12'3 5.0
2018-Apr-09 03:59N 34°07' W 119°14'4 6.8
2018-Apr-09 03:25N 34°03' W 119°13'11 9.8
2018-Apr-09 02:20N 33°58' W 119°02'511.3
2018-Apr-09 01:55N 33°55' W 118°57'611.5
2018-Apr-09 01:26N 33°53' W 118°51'511.8
2018-Apr-09 01:00N 33°50' W 118°45'611.9
2018-Apr-09 00:29N 33°47' W 118°39'612.0
2018-Apr-09 00:00N 33°44' W 118°33'611.6
2018-Apr-08 23:30N 33°41' W 118°27'611.6
2018-Apr-08 23:00N 33°39' W 118°21'611.5
2018-Apr-08 22:30N 33°38' W 118°14'4 8.5
2018-Apr-08 22:01N 33°42' W 118°11'3 6.4
2018-Apr-08 21:31N 33°45' W 118°13'1 3.0
2018-Apr-08 21:01N 33°46' W 118°13'0 0.2
2018-Apr-08 20:29N 33°46' W 118°13'0 0.0
2018-Apr-08 19:59N 33°46' W 118°13'0 0.0
2018-Apr-08 19:29N 33°46' W 118°13'0 0.0
2018-Apr-08 18:59N 33°46' W 118°13'0 0.0
2018-Apr-08 18:29N 33°46' W 118°13'0 0.0
2018-Apr-08 17:59N 33°46' W 118°13'0 0.0
2018-Apr-08 17:29N 33°46' W 118°13'0 0.0
2018-Apr-08 16:59N 33°46' W 118°13'0 0.0
2018-Apr-08 16:29N 33°46' W 118°13'0 0.0
2018-Apr-08 15:59N 33°46' W 118°13'0 0.0
2018-Apr-08 15:29N 33°46' W 118°13'0 0.0
2018-Apr-08 14:59N 33°46' W 118°13'0 0.7
2018-Apr-08 14:31N 33°46' W 118°13'1 2.6
2018-Apr-08 14:01N 33°45' W 118°13'3 6.3
2018-Apr-08 13:31N 33°42' W 118°11'3 6.1
2018-Apr-08 13:01N 33°39' W 118°10'1 2.7
2018-Apr-08 12:31N 33°38' W 118°10'510.8
2018-Apr-08 12:00N 33°33' W 118°09'611.5
2018-Apr-08 11:31N 33°27' W 118°06'611.9
2018-Apr-08 11:00N 33°22' W 118°04'611.5
2018-Apr-08 10:31N 33°16' W 118°02'713.6
2018-Apr-08 10:01N 33°10' W 117°59'713.7
2018-Apr-08 09:30N 33°03' W 117°57'713.6
2018-Apr-08 09:00N 32°57' W 117°55'714.0
2018-Apr-08 08:30N 32°50' W 117°53'713.9
2018-Apr-08 08:00N 32°43' W 117°50'713.9
2018-Apr-08 07:30N 32°36' W 117°48'714.0
2018-Apr-08 07:00N 32°30' W 117°45'713.9
2018-Apr-08 06:30N 32°23' W 117°42'714.1
2018-Apr-08 06:00N 32°16' W 117°40'3314.1
2018-Apr-08 03:38N 31°45' W 117°27'214.2
2018-Apr-08 03:30N 31°43' W 117°26'1014.1
2018-Apr-08 02:48N 31°34' W 117°23'  

Dump ship's entire track history